sensor_id;sensor_type;location;lat;lon;timestamp;temperature;humidity
4604;DHT22;2314;48.272;11.562;2023-01-15T00:01:22;8.70;99.90
4604;DHT22;2314;48.272;11.562;2023-01-15T00:03:50;8.70;99.90
4604;DHT22;2314;48.272;11.562;2023-01-15T00:06:20;8.60;99.90
4604;DHT22;2314;48.272;11.562;2023-01-15T00:08:48;8.50;99.90
4604;DHT22;2314;48.272;11.562;2023-01-15T00:11:16;8.50;99.90
4604;DHT22;2314;48.272;11.562;2023-01-15T00:13:43;8.50;99.90
4604;DHT22;2314;48.272;11.562;2023-01-15T00:16:12;8.50;99.90
4604;DHT22;2314;48.272;11.562;2023-01-15T00:18:40;8.50;99.90
4604;DHT22;2314;48.272;11.562;2023-01-15T00:21:10;8.50;99.90
4604;DHT22;2314;48.272;11.562;2023-01-15T00:23:39;8.50;99.90
4604;DHT22;2314;48.272;11.562;2023-01-15T00:26:27;8.50;99.90
4604;DHT22;2314;48.272;11.562;2023-01-15T00:29:13;8.50;99.90
4604;DHT22;2314;48.272;11.562;2023-01-15T00:31:40;8.60;99.90
4604;DHT22;2314;48.272;11.562;2023-01-15T00:34:08;8.70;99.90
4604;DHT22;2314;48.272;11.562;2023-01-15T00:36:35;8.60;99.90
4604;DHT22;2314;48.272;11.562;2023-01-15T00:39:06;8.60;99.90
4604;DHT22;2314;48.272;11.562;2023-01-15T00:41:33;8.60;99.90
4604;DHT22;2314;48.272;11.562;2023-01-15T00:44:00;8.50;99.90
4604;DHT22;2314;48.272;11.562;2023-01-15T00:46:27;8.50;99.90
4604;DHT22;2314;48.272;11.562;2023-01-15T00:48:54;8.30;99.90
4604;DHT22;2314;48.272;11.562;2023-01-15T00:51:21;8.20;99.90
4604;DHT22;2314;48.272;11.562;2023-01-15T00:53:48;8.00;99.90
4604;DHT22;2314;48.272;11.562;2023-01-15T00:56:16;7.80;99.90
4604;DHT22;2314;48.272;11.562;2023-01-15T00:58:43;7.70;99.90
4604;DHT22;2314;48.272;11.562;2023-01-15T01:01:12;7.50;99.90
4604;DHT22;2314;48.272;11.562;2023-01-15T01:03:39;7.40;99.90
4604;DHT22;2314;48.272;11.562;2023-01-15T01:06:06;7.30;99.90
4604;DHT22;2314;48.272;11.562;2023-01-15T01:08:34;7.20;99.90
4604;DHT22;2314;48.272;11.562;2023-01-15T01:11:03;7.20;99.90
4604;DHT22;2314;48.272;11.562;2023-01-15T01:13:32;7.20;99.90
4604;DHT22;2314;48.272;11.562;2023-01-15T01:16:00;7.20;99.90
4604;DHT22;2314;48.272;11.562;2023-01-15T01:18:27;7.10;99.90
4604;DHT22;2314;48.272;11.562;2023-01-15T01:20:55;7.00;99.90
4604;DHT22;2314;48.272;11.562;2023-01-15T01:23:22;7.00;99.90
4604;DHT22;2314;48.272;11.562;2023-01-15T01:25:50;7.10;99.90
4604;DHT22;2314;48.272;11.562;2023-01-15T01:28:17;7.10;99.90
4604;DHT22;2314;48.272;11.562;2023-01-15T01:30:45;7.20;99.90
4604;DHT22;2314;48.272;11.562;2023-01-15T01:33:13;7.20;99.90
4604;DHT22;2314;48.272;11.562;2023-01-15T01:35:46;7.30;99.90
4604;DHT22;2314;48.272;11.562;2023-01-15T01:38:15;7.20;99.90
4604;DHT22;2314;48.272;11.562;2023-01-15T01:40:42;7.10;99.90
4604;DHT22;2314;48.272;11.562;2023-01-15T01:43:16;7.10;99.90
4604;DHT22;2314;48.272;11.562;2023-01-15T01:45:48;7.00;99.90
4604;DHT22;2314;48.272;11.562;2023-01-15T01:48:16;7.00;99.90
4604;DHT22;2314;48.272;11.562;2023-01-15T01:50:47;6.90;99.90
4604;DHT22;2314;48.272;11.562;2023-01-15T01:53:18;6.80;99.90
4604;DHT22;2314;48.272;11.562;2023-01-15T01:55:47;6.80;99.90
4604;DHT22;2314;48.272;11.562;2023-01-15T01:58:15;6.80;99.90
4604;DHT22;2314;48.272;11.562;2023-01-15T02:00:45;6.70;99.90
4604;DHT22;2314;48.272;11.562;2023-01-15T02:03:17;6.70;99.90
4604;DHT22;2314;48.272;11.562;2023-01-15T02:05:49;6.60;99.90
4604;DHT22;2314;48.272;11.562;2023-01-15T02:08:18;6.50;99.90
4604;DHT22;2314;48.272;11.562;2023-01-15T02:10:48;6.50;99.90
4604;DHT22;2314;48.272;11.562;2023-01-15T02:13:22;6.40;99.90
4604;DHT22;2314;48.272;11.562;2023-01-15T02:15:58;6.40;99.90
4604;DHT22;2314;48.272;11.562;2023-01-15T02:18:30;6.30;99.90
4604;DHT22;2314;48.272;11.562;2023-01-15T02:21:06;6.20;99.90
4604;DHT22;2314;48.272;11.562;2023-01-15T02:23:52;6.30;99.90
4604;DHT22;2314;48.272;11.562;2023-01-15T02:29:52;6.30;99.90
4604;DHT22;2314;48.272;11.562;2023-01-15T02:32:28;6.30;99.90
4604;DHT22;2314;48.272;11.562;2023-01-15T02:35:04;6.30;99.90
4604;DHT22;2314;48.272;11.562;2023-01-15T02:37:35;6.20;99.90
4604;DHT22;2314;48.272;11.562;2023-01-15T02:40:06;6.40;99.90
4604;DHT22;2314;48.272;11.562;2023-01-15T02:42:37;6.30;99.90
4604;DHT22;2314;48.272;11.562;2023-01-15T02:45:08;6.40;99.90
4604;DHT22;2314;48.272;11.562;2023-01-15T02:47:38;6.40;99.90
4604;DHT22;2314;48.272;11.562;2023-01-15T02:50:11;6.40;99.90
4604;DHT22;2314;48.272;11.562;2023-01-15T02:52:43;6.40;99.90
4604;DHT22;2314;48.272;11.562;2023-01-15T02:55:16;6.50;99.90
4604;DHT22;2314;48.272;11.562;2023-01-15T02:57:48;6.50;99.90
4604;DHT22;2314;48.272;11.562;2023-01-15T03:00:18;6.50;99.90
4604;DHT22;2314;48.272;11.562;2023-01-15T03:02:52;6.50;99.90
4604;DHT22;2314;48.272;11.562;2023-01-15T03:05:25;6.50;99.90
4604;DHT22;2314;48.272;11.562;2023-01-15T03:07:55;6.50;99.90
4604;DHT22;2314;48.272;11.562;2023-01-15T03:10:30;6.50;99.90
4604;DHT22;2314;48.272;11.562;2023-01-15T03:13:04;6.60;99.90
4604;DHT22;2314;48.272;11.562;2023-01-15T03:15:42;6.70;99.90
4604;DHT22;2314;48.272;11.562;2023-01-15T03:18:38;6.80;99.90
4604;DHT22;2314;48.272;11.562;2023-01-15T03:21:12;6.70;99.90
4604;DHT22;2314;48.272;11.562;2023-01-15T03:23:44;6.70;99.90
4604;DHT22;2314;48.272;11.562;2023-01-15T03:26:13;6.70;99.90
4604;DHT22;2314;48.272;11.562;2023-01-15T03:28:42;6.60;99.90
4604;DHT22;2314;48.272;11.562;2023-01-15T03:31:10;6.60;99.90
4604;DHT22;2314;48.272;11.562;2023-01-15T03:33:37;6.60;99.90
4604;DHT22;2314;48.272;11.562;2023-01-15T03:36:05;6.50;99.90
4604;DHT22;2314;48.272;11.562;2023-01-15T03:38:36;6.50;99.90
4604;DHT22;2314;48.272;11.562;2023-01-15T03:41:13;6.50;99.90
4604;DHT22;2314;48.272;11.562;2023-01-15T03:43:51;6.50;99.90
4604;DHT22;2314;48.272;11.562;2023-01-15T03:46:42;6.50;99.90
4604;DHT22;2314;48.272;11.562;2023-01-15T03:49:20;6.50;99.90
4604;DHT22;2314;48.272;11.562;2023-01-15T03:51:58;6.50;99.90
4604;DHT22;2314;48.272;11.562;2023-01-15T03:54:35;6.50;99.90
4604;DHT22;2314;48.272;11.562;2023-01-15T03:57:12;6.50;99.90
4604;DHT22;2314;48.272;11.562;2023-01-15T03:59:48;6.50;99.90
4604;DHT22;2314;48.272;11.562;2023-01-15T04:02:20;6.70;99.90
4604;DHT22;2314;48.272;11.562;2023-01-15T04:04:49;6.70;99.90
4604;DHT22;2314;48.272;11.562;2023-01-15T04:07:17;6.70;99.90
4604;DHT22;2314;48.272;11.562;2023-01-15T04:09:44;6.70;99.90
4604;DHT22;2314;48.272;11.562;2023-01-15T04:12:11;6.70;99.90
4604;DHT22;2314;48.272;11.562;2023-01-15T04:14:38;6.70;99.90
4604;DHT22;2314;48.272;11.562;2023-01-15T04:17:07;6.70;99.90
4604;DHT22;2314;48.272;11.562;2023-01-15T04:19:34;6.80;99.90
4604;DHT22;2314;48.272;11.562;2023-01-15T04:22:01;6.80;99.90
4604;DHT22;2314;48.272;11.562;2023-01-15T04:24:29;6.80;99.90
4604;DHT22;2314;48.272;11.562;2023-01-15T04:26:56;6.90;99.90
4604;DHT22;2314;48.272;11.562;2023-01-15T04:29:23;6.80;99.90
4604;DHT22;2314;48.272;11.562;2023-01-15T04:31:50;6.80;99.90
4604;DHT22;2314;48.272;11.562;2023-01-15T04:34:23;6.80;99.90
4604;DHT22;2314;48.272;11.562;2023-01-15T04:36:51;6.80;99.90
4604;DHT22;2314;48.272;11.562;2023-01-15T04:39:18;6.80;99.90
4604;DHT22;2314;48.272;11.562;2023-01-15T04:41:45;6.80;99.90
4604;DHT22;2314;48.272;11.562;2023-01-15T04:44:31;6.70;99.90
4604;DHT22;2314;48.272;11.562;2023-01-15T04:46:58;6.80;99.90
4604;DHT22;2314;48.272;11.562;2023-01-15T04:49:26;6.80;99.90
4604;DHT22;2314;48.272;11.562;2023-01-15T04:51:53;6.80;99.90
4604;DHT22;2314;48.272;11.562;2023-01-15T04:54:21;6.80;99.90
4604;DHT22;2314;48.272;11.562;2023-01-15T04:56:49;6.80;99.90
4604;DHT22;2314;48.272;11.562;2023-01-15T04:59:22;6.70;99.90
4604;DHT22;2314;48.272;11.562;2023-01-15T05:01:51;6.80;99.90
4604;DHT22;2314;48.272;11.562;2023-01-15T05:04:19;6.80;99.90
4604;DHT22;2314;48.272;11.562;2023-01-15T05:06:47;6.90;99.90
4604;DHT22;2314;48.272;11.562;2023-01-15T05:09:14;6.90;99.90
4604;DHT22;2314;48.272;11.562;2023-01-15T05:11:41;6.90;99.90
4604;DHT22;2314;48.272;11.562;2023-01-15T05:14:08;6.90;99.90
4604;DHT22;2314;48.272;11.562;2023-01-15T05:16:36;6.90;99.90
4604;DHT22;2314;48.272;11.562;2023-01-15T05:19:04;7.00;99.90
4604;DHT22;2314;48.272;11.562;2023-01-15T05:21:34;7.00;99.90
4604;DHT22;2314;48.272;11.562;2023-01-15T05:24:05;7.00;99.90
4604;DHT22;2314;48.272;11.562;2023-01-15T05:26:34;7.00;99.90
4604;DHT22;2314;48.272;11.562;2023-01-15T05:29:02;7.00;99.90
4604;DHT22;2314;48.272;11.562;2023-01-15T05:31:30;7.10;99.90
4604;DHT22;2314;48.272;11.562;2023-01-15T05:33:58;7.00;99.90
4604;DHT22;2314;48.272;11.562;2023-01-15T05:36:28;7.10;99.90
4604;DHT22;2314;48.272;11.562;2023-01-15T05:38:57;7.10;99.90
4604;DHT22;2314;48.272;11.562;2023-01-15T05:41:28;7.10;99.90
4604;DHT22;2314;48.272;11.562;2023-01-15T05:44:14;7.20;99.90
4604;DHT22;2314;48.272;11.562;2023-01-15T05:46:43;7.20;99.90
4604;DHT22;2314;48.272;11.562;2023-01-15T05:49:12;7.20;99.90
4604;DHT22;2314;48.272;11.562;2023-01-15T05:51:40;7.20;99.90
4604;DHT22;2314;48.272;11.562;2023-01-15T05:54:10;7.30;99.90
4604;DHT22;2314;48.272;11.562;2023-01-15T05:56:40;7.40;99.90
4604;DHT22;2314;48.272;11.562;2023-01-15T05:59:07;7.50;99.90
4604;DHT22;2314;48.272;11.562;2023-01-15T06:01:35;7.60;99.90
4604;DHT22;2314;48.272;11.562;2023-01-15T06:04:03;7.80;99.90
4604;DHT22;2314;48.272;11.562;2023-01-15T06:06:32;8.00;99.90
4604;DHT22;2314;48.272;11.562;2023-01-15T06:09:00;8.40;99.90
4604;DHT22;2314;48.272;11.562;2023-01-15T06:11:27;8.60;99.90
4604;DHT22;2314;48.272;11.562;2023-01-15T06:13:55;8.70;99.90
4604;DHT22;2314;48.272;11.562;2023-01-15T06:16:23;9.10;99.90
4604;DHT22;2314;48.272;11.562;2023-01-15T06:18:50;9.40;99.90
4604;DHT22;2314;48.272;11.562;2023-01-15T06:21:18;9.60;99.90
4604;DHT22;2314;48.272;11.562;2023-01-15T06:23:45;9.70;99.90
4604;DHT22;2314;48.272;11.562;2023-01-15T06:26:13;9.80;99.90
4604;DHT22;2314;48.272;11.562;2023-01-15T06:28:42;10.00;99.90
4604;DHT22;2314;48.272;11.562;2023-01-15T06:31:13;10.00;99.90
4604;DHT22;2314;48.272;11.562;2023-01-15T06:33:42;10.10;99.90
4604;DHT22;2314;48.272;11.562;2023-01-15T06:36:11;10.10;99.90
4604;DHT22;2314;48.272;11.562;2023-01-15T06:38:40;10.20;99.90
4604;DHT22;2314;48.272;11.562;2023-01-15T06:41:11;10.20;99.90
4604;DHT22;2314;48.272;11.562;2023-01-15T06:43:53;10.20;99.90
4604;DHT22;2314;48.272;11.562;2023-01-15T06:46:42;10.30;99.90
4604;DHT22;2314;48.272;11.562;2023-01-15T06:49:28;10.40;99.90
4604;DHT22;2314;48.272;11.562;2023-01-15T06:51:56;10.40;99.90
4604;DHT22;2314;48.272;11.562;2023-01-15T06:54:23;10.40;99.90
4604;DHT22;2314;48.272;11.562;2023-01-15T06:56:50;10.50;99.90
4604;DHT22;2314;48.272;11.562;2023-01-15T06:59:18;10.50;99.90
4604;DHT22;2314;48.272;11.562;2023-01-15T07:01:49;10.50;99.90
4604;DHT22;2314;48.272;11.562;2023-01-15T07:04:17;10.60;99.90
4604;DHT22;2314;48.272;11.562;2023-01-15T07:06:44;10.70;99.90
4604;DHT22;2314;48.272;11.562;2023-01-15T07:09:11;10.70;99.90
4604;DHT22;2314;48.272;11.562;2023-01-15T07:11:38;10.70;99.90
4604;DHT22;2314;48.272;11.562;2023-01-15T07:14:14;10.80;99.90
4604;DHT22;2314;48.272;11.562;2023-01-15T07:16:42;10.70;99.90
4604;DHT22;2314;48.272;11.562;2023-01-15T07:19:11;10.80;99.90
4604;DHT22;2314;48.272;11.562;2023-01-15T07:21:38;10.90;99.90
4604;DHT22;2314;48.272;11.562;2023-01-15T07:24:05;10.90;99.90
4604;DHT22;2314;48.272;11.562;2023-01-15T07:26:33;10.90;99.90
4604;DHT22;2314;48.272;11.562;2023-01-15T07:29:01;11.00;99.90
4604;DHT22;2314;48.272;11.562;2023-01-15T07:31:29;11.00;99.90
4604;DHT22;2314;48.272;11.562;2023-01-15T07:33:56;11.00;99.90
4604;DHT22;2314;48.272;11.562;2023-01-15T07:36:25;11.00;99.90
4604;DHT22;2314;48.272;11.562;2023-01-15T07:38:52;11.10;99.90
4604;DHT22;2314;48.272;11.562;2023-01-15T07:41:19;11.10;99.90
4604;DHT22;2314;48.272;11.562;2023-01-15T07:44:04;11.10;99.90
4604;DHT22;2314;48.272;11.562;2023-01-15T07:46:49;11.10;99.90
4604;DHT22;2314;48.272;11.562;2023-01-15T07:49:33;11.10;99.90
4604;DHT22;2314;48.272;11.562;2023-01-15T07:52:15;11.20;99.90
4604;DHT22;2314;48.272;11.562;2023-01-15T07:54:44;11.20;99.90
4604;DHT22;2314;48.272;11.562;2023-01-15T07:57:12;11.20;99.90
4604;DHT22;2314;48.272;11.562;2023-01-15T07:59:41;11.30;99.90
4604;DHT22;2314;48.272;11.562;2023-01-15T08:02:08;11.40;99.90
4604;DHT22;2314;48.272;11.562;2023-01-15T08:04:35;11.30;99.90
4604;DHT22;2314;48.272;11.562;2023-01-15T08:07:03;11.30;99.90
4604;DHT22;2314;48.272;11.562;2023-01-15T08:09:32;11.30;99.90
4604;DHT22;2314;48.272;11.562;2023-01-15T08:12:01;11.40;99.90
4604;DHT22;2314;48.272;11.562;2023-01-15T08:14:46;11.40;99.90
4604;DHT22;2314;48.272;11.562;2023-01-15T08:17:32;11.40;99.90
4604;DHT22;2314;48.272;11.562;2023-01-15T08:19:59;11.30;99.90
4604;DHT22;2314;48.272;11.562;2023-01-15T08:22:27;11.40;99.90
4604;DHT22;2314;48.272;11.562;2023-01-15T08:24:55;11.40;99.90
4604;DHT22;2314;48.272;11.562;2023-01-15T08:27:23;11.40;99.90
4604;DHT22;2314;48.272;11.562;2023-01-15T08:29:51;11.30;99.90
4604;DHT22;2314;48.272;11.562;2023-01-15T08:32:18;11.30;99.90
4604;DHT22;2314;48.272;11.562;2023-01-15T08:34:45;11.30;99.90
4604;DHT22;2314;48.272;11.562;2023-01-15T08:37:12;11.40;99.90
4604;DHT22;2314;48.272;11.562;2023-01-15T08:39:39;11.40;99.90
4604;DHT22;2314;48.272;11.562;2023-01-15T08:42:08;11.40;99.90
4604;DHT22;2314;48.272;11.562;2023-01-15T08:44:35;11.50;99.90
4604;DHT22;2314;48.272;11.562;2023-01-15T08:47:02;11.50;99.90
4604;DHT22;2314;48.272;11.562;2023-01-15T08:49:29;11.60;99.90
4604;DHT22;2314;48.272;11.562;2023-01-15T08:51:59;11.60;99.90
4604;DHT22;2314;48.272;11.562;2023-01-15T08:54:26;11.60;99.90
4604;DHT22;2314;48.272;11.562;2023-01-15T08:56:53;11.60;99.90
4604;DHT22;2314;48.272;11.562;2023-01-15T08:59:21;11.70;99.90
4604;DHT22;2314;48.272;11.562;2023-01-15T09:01:50;11.80;99.90
4604;DHT22;2314;48.272;11.562;2023-01-15T09:04:19;11.90;99.90
4604;DHT22;2314;48.272;11.562;2023-01-15T09:06:47;11.90;99.90
4604;DHT22;2314;48.272;11.562;2023-01-15T09:09:15;12.00;99.90
4604;DHT22;2314;48.272;11.562;2023-01-15T09:11:43;12.00;99.90
4604;DHT22;2314;48.272;11.562;2023-01-15T09:14:13;12.00;99.90
4604;DHT22;2314;48.272;11.562;2023-01-15T09:16:42;12.00;99.90
4604;DHT22;2314;48.272;11.562;2023-01-15T09:19:09;12.20;99.90
4604;DHT22;2314;48.272;11.562;2023-01-15T09:21:39;12.20;99.90
4604;DHT22;2314;48.272;11.562;2023-01-15T09:24:07;12.20;99.90
4604;DHT22;2314;48.272;11.562;2023-01-15T09:26:36;12.30;99.90
4604;DHT22;2314;48.272;11.562;2023-01-15T09:29:05;12.40;99.90
4604;DHT22;2314;48.272;11.562;2023-01-15T09:31:33;12.40;99.90
4604;DHT22;2314;48.272;11.562;2023-01-15T09:34:01;12.40;99.90
4604;DHT22;2314;48.272;11.562;2023-01-15T09:36:30;12.40;99.90
4604;DHT22;2314;48.272;11.562;2023-01-15T09:38:59;12.50;99.90
4604;DHT22;2314;48.272;11.562;2023-01-15T09:41:37;12.60;99.90
4604;DHT22;2314;48.272;11.562;2023-01-15T09:44:51;12.60;99.90
4604;DHT22;2314;48.272;11.562;2023-01-15T09:47:33;12.60;99.90
4604;DHT22;2314;48.272;11.562;2023-01-15T09:50:16;12.80;99.90
4604;DHT22;2314;48.272;11.562;2023-01-15T09:53:04;12.80;99.90
4604;DHT22;2314;48.272;11.562;2023-01-15T09:55:48;12.70;99.90
4604;DHT22;2314;48.272;11.562;2023-01-15T09:58:22;12.10;99.90
4604;DHT22;2314;48.272;11.562;2023-01-15T10:00:53;11.30;99.90
4604;DHT22;2314;48.272;11.562;2023-01-15T10:03:27;10.40;99.90
4604;DHT22;2314;48.272;11.562;2023-01-15T10:06:06;9.50;99.90
4604;DHT22;2314;48.272;11.562;2023-01-15T10:08:39;8.80;99.90
4604;DHT22;2314;48.272;11.562;2023-01-15T10:11:23;8.50;99.90
4604;DHT22;2314;48.272;11.562;2023-01-15T10:14:29;8.30;99.90
4604;DHT22;2314;48.272;11.562;2023-01-15T10:17:05;8.30;99.90
4604;DHT22;2314;48.272;11.562;2023-01-15T10:19:39;8.20;99.90
4604;DHT22;2314;48.272;11.562;2023-01-15T10:22:15;8.00;99.90
4604;DHT22;2314;48.272;11.562;2023-01-15T10:24:56;7.90;99.90
4604;DHT22;2314;48.272;11.562;2023-01-15T10:27:25;7.70;99.90
4604;DHT22;2314;48.272;11.562;2023-01-15T10:30:00;7.60;99.90
4604;DHT22;2314;48.272;11.562;2023-01-15T10:32:38;7.40;99.90
4604;DHT22;2314;48.272;11.562;2023-01-15T10:35:29;7.20;99.90
4604;DHT22;2314;48.272;11.562;2023-01-15T10:38:11;7.10;99.90
4604;DHT22;2314;48.272;11.562;2023-01-15T10:41:01;7.10;99.90
4604;DHT22;2314;48.272;11.562;2023-01-15T10:43:44;7.10;99.90
4604;DHT22;2314;48.272;11.562;2023-01-15T10:46:17;7.10;99.90
4604;DHT22;2314;48.272;11.562;2023-01-15T10:48:49;7.00;99.90
4604;DHT22;2314;48.272;11.562;2023-01-15T10:51:20;7.00;99.90
4604;DHT22;2314;48.272;11.562;2023-01-15T10:53:52;6.90;99.90
4604;DHT22;2314;48.272;11.562;2023-01-15T10:56:27;6.90;99.90
4604;DHT22;2314;48.272;11.562;2023-01-15T10:59:02;6.80;99.90
4604;DHT22;2314;48.272;11.562;2023-01-15T11:01:36;6.80;99.90
4604;DHT22;2314;48.272;11.562;2023-01-15T11:04:05;6.90;99.90
4604;DHT22;2314;48.272;11.562;2023-01-15T11:06:38;6.90;99.90
4604;DHT22;2314;48.272;11.562;2023-01-15T11:09:14;6.90;99.90
4604;DHT22;2314;48.272;11.562;2023-01-15T11:11:47;6.90;99.90
4604;DHT22;2314;48.272;11.562;2023-01-15T11:14:34;6.90;99.90
4604;DHT22;2314;48.272;11.562;2023-01-15T11:17:21;6.90;99.90
4604;DHT22;2314;48.272;11.562;2023-01-15T11:20:23;6.80;99.90
4604;DHT22;2314;48.272;11.562;2023-01-15T11:22:54;6.80;99.90
4604;DHT22;2314;48.272;11.562;2023-01-15T11:25:27;6.80;99.90
4604;DHT22;2314;48.272;11.562;2023-01-15T11:27:57;6.70;99.90
4604;DHT22;2314;48.272;11.562;2023-01-15T11:30:28;6.70;99.90
4604;DHT22;2314;48.272;11.562;2023-01-15T11:32:58;6.60;99.90
4604;DHT22;2314;48.272;11.562;2023-01-15T11:35:29;6.50;99.90
4604;DHT22;2314;48.272;11.562;2023-01-15T11:38:04;6.50;99.90
4604;DHT22;2314;48.272;11.562;2023-01-15T11:40:33;6.30;99.90
4604;DHT22;2314;48.272;11.562;2023-01-15T11:43:00;6.00;99.90
4604;DHT22;2314;48.272;11.562;2023-01-15T11:45:49;5.80;99.90
4604;DHT22;2314;48.272;11.562;2023-01-15T11:48:42;5.60;99.90
4604;DHT22;2314;48.272;11.562;2023-01-15T11:51:28;5.50;99.90
4604;DHT22;2314;48.272;11.562;2023-01-15T11:54:00;5.50;99.90
4604;DHT22;2314;48.272;11.562;2023-01-15T11:56:32;5.50;99.90
4604;DHT22;2314;48.272;11.562;2023-01-15T11:59:01;5.40;99.90
4604;DHT22;2314;48.272;11.562;2023-01-15T12:01:32;5.40;99.90
4604;DHT22;2314;48.272;11.562;2023-01-15T12:04:02;5.40;99.90
4604;DHT22;2314;48.272;11.562;2023-01-15T12:06:35;5.30;99.90
4604;DHT22;2314;48.272;11.562;2023-01-15T12:09:09;5.30;99.90
4604;DHT22;2314;48.272;11.562;2023-01-15T12:11:57;5.30;99.90
4604;DHT22;2314;48.272;11.562;2023-01-15T12:14:44;5.30;99.90
4604;DHT22;2314;48.272;11.562;2023-01-15T12:17:26;5.30;99.90
4604;DHT22;2314;48.272;11.562;2023-01-15T12:20:06;5.40;99.90
4604;DHT22;2314;48.272;11.562;2023-01-15T12:22:49;5.40;99.90
4604;DHT22;2314;48.272;11.562;2023-01-15T12:25:33;5.40;99.90
4604;DHT22;2314;48.272;11.562;2023-01-15T12:28:13;5.40;99.90
4604;DHT22;2314;48.272;11.562;2023-01-15T12:30:50;5.50;99.90
4604;DHT22;2314;48.272;11.562;2023-01-15T12:33:34;5.50;99.90
4604;DHT22;2314;48.272;11.562;2023-01-15T12:36:09;5.50;99.90
4604;DHT22;2314;48.272;11.562;2023-01-15T12:38:48;5.50;99.90
4604;DHT22;2314;48.272;11.562;2023-01-15T12:41:22;5.50;99.90
4604;DHT22;2314;48.272;11.562;2023-01-15T12:44:15;5.50;99.90
4604;DHT22;2314;48.272;11.562;2023-01-15T12:46:57;5.40;99.90
4604;DHT22;2314;48.272;11.562;2023-01-15T12:49:34;5.40;99.90
4604;DHT22;2314;48.272;11.562;2023-01-15T12:52:09;5.40;99.90
4604;DHT22;2314;48.272;11.562;2023-01-15T12:54:44;5.40;99.90
4604;DHT22;2314;48.272;11.562;2023-01-15T12:57:17;5.40;99.90
4604;DHT22;2314;48.272;11.562;2023-01-15T12:59:56;5.40;99.90
4604;DHT22;2314;48.272;11.562;2023-01-15T13:02:32;5.40;99.90
4604;DHT22;2314;48.272;11.562;2023-01-15T13:05:15;5.40;99.90
4604;DHT22;2314;48.272;11.562;2023-01-15T13:07:48;5.40;99.90
4604;DHT22;2314;48.272;11.562;2023-01-15T13:10:21;5.40;99.90
4604;DHT22;2314;48.272;11.562;2023-01-15T13:12:51;5.40;99.90
4604;DHT22;2314;48.272;11.562;2023-01-15T13:15:26;5.50;99.90
4604;DHT22;2314;48.272;11.562;2023-01-15T13:18:03;5.50;99.90
4604;DHT22;2314;48.272;11.562;2023-01-15T13:20:43;5.50;99.90
4604;DHT22;2314;48.272;11.562;2023-01-15T13:23:26;5.50;99.90
4604;DHT22;2314;48.272;11.562;2023-01-15T13:26:10;5.50;99.90
4604;DHT22;2314;48.272;11.562;2023-01-15T13:28:50;5.50;99.90
4604;DHT22;2314;48.272;11.562;2023-01-15T13:31:41;5.40;99.90
4604;DHT22;2314;48.272;11.562;2023-01-15T13:34:21;5.30;99.90
4604;DHT22;2314;48.272;11.562;2023-01-15T13:36:53;5.30;99.90
4604;DHT22;2314;48.272;11.562;2023-01-15T13:39:35;5.20;99.90
4604;DHT22;2314;48.272;11.562;2023-01-15T13:42:04;5.10;99.90
4604;DHT22;2314;48.272;11.562;2023-01-15T13:44:51;4.90;99.90
4604;DHT22;2314;48.272;11.562;2023-01-15T13:47:24;4.90;99.90
4604;DHT22;2314;48.272;11.562;2023-01-15T13:49:55;4.90;99.90
4604;DHT22;2314;48.272;11.562;2023-01-15T13:52:27;4.90;99.90
4604;DHT22;2314;48.272;11.562;2023-01-15T13:54:58;4.90;99.90
4604;DHT22;2314;48.272;11.562;2023-01-15T13:57:32;4.80;99.90
4604;DHT22;2314;48.272;11.562;2023-01-15T14:00:01;4.80;99.90
4604;DHT22;2314;48.272;11.562;2023-01-15T14:02:32;4.70;99.90
4604;DHT22;2314;48.272;11.562;2023-01-15T14:05:16;4.70;99.90
4604;DHT22;2314;48.272;11.562;2023-01-15T14:07:52;4.70;99.90
4604;DHT22;2314;48.272;11.562;2023-01-15T14:10:34;4.70;99.90
4604;DHT22;2314;48.272;11.562;2023-01-15T14:13:29;4.60;99.90
4604;DHT22;2314;48.272;11.562;2023-01-15T14:16:18;4.60;99.90
4604;DHT22;2314;48.272;11.562;2023-01-15T14:19:13;4.60;99.90
4604;DHT22;2314;48.272;11.562;2023-01-15T14:21:56;4.70;99.90
4604;DHT22;2314;48.272;11.562;2023-01-15T14:24:53;4.70;99.90
4604;DHT22;2314;48.272;11.562;2023-01-15T14:27:44;4.70;99.90
4604;DHT22;2314;48.272;11.562;2023-01-15T14:30:29;4.60;99.90
4604;DHT22;2314;48.272;11.562;2023-01-15T14:33:27;4.70;99.90
4604;DHT22;2314;48.272;11.562;2023-01-15T14:36:08;4.60;99.90
4604;DHT22;2314;48.272;11.562;2023-01-15T14:38:44;4.00;99.90
4604;DHT22;2314;48.272;11.562;2023-01-15T14:41:13;3.90;99.90
4604;DHT22;2314;48.272;11.562;2023-01-15T14:43:47;3.70;99.90
4604;DHT22;2314;48.272;11.562;2023-01-15T14:46:23;3.60;99.90
4604;DHT22;2314;48.272;11.562;2023-01-15T14:48:52;3.60;99.90
4604;DHT22;2314;48.272;11.562;2023-01-15T14:51:25;3.50;99.90
4604;DHT22;2314;48.272;11.562;2023-01-15T14:53:55;3.50;99.90
4604;DHT22;2314;48.272;11.562;2023-01-15T14:56:27;3.60;99.90
4604;DHT22;2314;48.272;11.562;2023-01-15T14:59:00;3.50;99.90
4604;DHT22;2314;48.272;11.562;2023-01-15T15:01:40;3.50;99.90
4604;DHT22;2314;48.272;11.562;2023-01-15T15:04:16;3.50;99.90
4604;DHT22;2314;48.272;11.562;2023-01-15T15:06:53;3.50;99.90
4604;DHT22;2314;48.272;11.562;2023-01-15T15:09:28;3.50;99.90
4604;DHT22;2314;48.272;11.562;2023-01-15T15:15:03;3.60;99.90
4604;DHT22;2314;48.272;11.562;2023-01-15T15:17:42;3.60;99.90
4604;DHT22;2314;48.272;11.562;2023-01-15T15:20:27;3.70;99.90
4604;DHT22;2314;48.272;11.562;2023-01-15T15:23:03;3.70;99.90
4604;DHT22;2314;48.272;11.562;2023-01-15T15:25:35;3.70;99.90
4604;DHT22;2314;48.272;11.562;2023-01-15T15:28:05;3.70;99.90
4604;DHT22;2314;48.272;11.562;2023-01-15T15:30:40;3.70;99.90
4604;DHT22;2314;48.272;11.562;2023-01-15T15:33:14;3.70;99.90
4604;DHT22;2314;48.272;11.562;2023-01-15T15:35:46;3.70;99.90
4604;DHT22;2314;48.272;11.562;2023-01-15T15:38:18;3.70;99.90
4604;DHT22;2314;48.272;11.562;2023-01-15T15:40:49;3.60;99.90
4604;DHT22;2314;48.272;11.562;2023-01-15T15:43:21;3.60;99.90
4604;DHT22;2314;48.272;11.562;2023-01-15T15:46:25;3.70;99.90
4604;DHT22;2314;48.272;11.562;2023-01-15T15:49:10;3.60;99.90
4604;DHT22;2314;48.272;11.562;2023-01-15T15:51:39;3.60;99.90
4604;DHT22;2314;48.272;11.562;2023-01-15T15:54:14;3.60;99.90
4604;DHT22;2314;48.272;11.562;2023-01-15T15:56:47;3.50;99.90
4604;DHT22;2314;48.272;11.562;2023-01-15T15:59:30;3.50;99.90
4604;DHT22;2314;48.272;11.562;2023-01-15T16:02:09;3.50;99.90
4604;DHT22;2314;48.272;11.562;2023-01-15T16:04:45;3.50;99.90
4604;DHT22;2314;48.272;11.562;2023-01-15T16:07:13;3.40;99.90
4604;DHT22;2314;48.272;11.562;2023-01-15T16:09:47;3.40;99.90
4604;DHT22;2314;48.272;11.562;2023-01-15T16:12:16;3.30;99.90
4604;DHT22;2314;48.272;11.562;2023-01-15T16:14:44;3.30;99.90
4604;DHT22;2314;48.272;11.562;2023-01-15T16:17:12;3.30;99.90
4604;DHT22;2314;48.272;11.562;2023-01-15T16:19:41;3.30;99.90
4604;DHT22;2314;48.272;11.562;2023-01-15T16:22:13;3.30;99.90
4604;DHT22;2314;48.272;11.562;2023-01-15T16:24:52;3.30;99.90
4604;DHT22;2314;48.272;11.562;2023-01-15T16:27:21;3.30;99.90
4604;DHT22;2314;48.272;11.562;2023-01-15T16:29:50;3.30;99.90
4604;DHT22;2314;48.272;11.562;2023-01-15T16:32:22;3.30;99.90
4604;DHT22;2314;48.272;11.562;2023-01-15T16:35:03;3.40;99.90
4604;DHT22;2314;48.272;11.562;2023-01-15T16:37:32;3.40;99.90
4604;DHT22;2314;48.272;11.562;2023-01-15T16:40:03;3.40;99.90
4604;DHT22;2314;48.272;11.562;2023-01-15T16:42:35;3.40;99.90